createdAt,value
2023-05-13T00:02:01.931Z,2.00
2023-05-13T00:04:29.089Z,2.00
2023-05-13T00:06:56.352Z,1.80
2023-05-13T00:09:23.512Z,4.30
2023-05-13T00:11:50.550Z,2.70
2023-05-13T00:14:17.812Z,1.90
2023-05-13T00:16:44.991Z,2.30
2023-05-13T00:19:12.627Z,3.40
2023-05-13T00:21:40.713Z,4.30
2023-05-13T00:24:07.668Z,2.70
2023-05-13T00:26:34.884Z,2.30
2023-05-13T00:29:01.890Z,2.10
2023-05-13T00:31:29.298Z,3.00
2023-05-13T00:33:56.593Z,2.40
2023-05-13T00:36:24.056Z,2.20
2023-05-13T00:38:51.324Z,3.00
2023-05-13T00:41:18.681Z,2.50
2023-05-13T00:43:45.932Z,2.10
2023-05-13T00:46:15.007Z,2.10
2023-05-13T00:48:42.287Z,2.20
2023-05-13T00:51:09.888Z,3.10
2023-05-13T00:53:38.743Z,2.40
2023-05-13T00:56:06.170Z,3.30
2023-05-13T00:58:33.266Z,2.60
2023-05-13T01:01:17.341Z,2.20
2023-05-13T01:04:15.674Z,2.90
2023-05-13T01:06:56.574Z,2.40
2023-05-13T01:09:23.695Z,2.30
2023-05-13T01:11:54.714Z,2.40
2023-05-13T01:14:27.190Z,2.50
2023-05-13T01:17:41.269Z,2.00
2023-05-13T01:20:09.432Z,2.60
2023-05-13T01:22:36.434Z,2.80
2023-05-13T01:25:04.046Z,2.70
2023-05-13T01:27:31.506Z,2.30
2023-05-13T01:30:00.593Z,3.20
2023-05-13T01:32:29.591Z,3.60
2023-05-13T01:34:57.787Z,3.60
2023-05-13T01:37:25.652Z,3.00
2023-05-13T01:39:53.216Z,3.10
2023-05-13T01:42:20.563Z,4.90
2023-05-13T01:44:47.526Z,2.40
2023-05-13T01:47:15.498Z,3.30
2023-05-13T01:49:42.746Z,3.70
2023-05-13T01:52:10.111Z,3.00
2023-05-13T01:54:37.373Z,2.50
2023-05-13T01:57:07.699Z,3.30
2023-05-13T01:59:35.158Z,3.00
2023-05-13T02:02:03.564Z,3.10
2023-05-13T02:04:30.802Z,2.90
2023-05-13T02:06:58.160Z,2.80
2023-05-13T02:09:26.645Z,4.00
2023-05-13T02:11:54.831Z,3.10
2023-05-13T02:14:21.874Z,3.20
2023-05-13T02:16:49.119Z,3.60
2023-05-13T02:19:16.503Z,3.00
2023-05-13T02:21:44.062Z,5.50
2023-05-13T02:24:11.067Z,4.10
2023-05-13T02:26:38.287Z,3.30
2023-05-13T02:29:05.531Z,3.20
2023-05-13T02:31:32.712Z,2.90
2023-05-13T02:34:00.047Z,2.80
2023-05-13T02:36:27.100Z,3.50
2023-05-13T02:38:54.869Z,4.00
2023-05-13T02:41:22.129Z,3.20
2023-05-13T02:43:49.686Z,3.00
2023-05-13T02:46:17.000Z,3.20
2023-05-13T02:48:44.722Z,3.70
2023-05-13T02:51:11.974Z,3.00
2023-05-13T02:53:39.244Z,3.80
2023-05-13T02:56:07.321Z,3.30
2023-05-13T02:58:35.902Z,4.30
2023-05-13T03:01:03.179Z,3.40
2023-05-13T03:03:30.403Z,4.40
2023-05-13T03:05:57.873Z,4.10
2023-05-13T03:08:25.241Z,3.30
2023-05-13T03:10:52.294Z,3.20
2023-05-13T03:13:19.341Z,3.50
2023-05-13T03:15:46.303Z,3.30
2023-05-13T03:18:13.233Z,3.70
2023-05-13T03:20:40.576Z,4.10
2023-05-13T03:23:08.079Z,5.00
2023-05-13T03:25:35.940Z,4.70
2023-05-13T03:28:03.718Z,3.50
2023-05-13T03:30:33.115Z,4.10
2023-05-13T03:33:04.586Z,4.60
2023-05-13T03:35:31.674Z,4.60
2023-05-13T03:37:59.089Z,4.80
2023-05-13T03:40:26.457Z,3.50
2023-05-13T03:42:53.525Z,7.20
2023-05-13T03:45:21.607Z,10.00
2023-05-13T03:47:50.738Z,8.30
2023-05-13T03:50:18.341Z,11.80
2023-05-13T03:52:47.126Z,11.70
2023-05-13T03:55:15.443Z,13.10
2023-05-13T03:57:46.882Z,7.90
2023-05-13T04:00:14.953Z,6.60
2023-05-13T04:02:42.559Z,4.80
2023-05-13T04:05:11.254Z,4.70
2023-05-13T04:07:40.004Z,5.30
2023-05-13T04:10:08.188Z,4.70
2023-05-13T04:12:35.344Z,5.20
2023-05-13T04:15:02.905Z,4.20
2023-05-13T04:17:29.879Z,5.90
2023-05-13T04:19:57.000Z,4.20
2023-05-13T04:22:24.376Z,4.90
2023-05-13T04:24:55.922Z,4.10
2023-05-13T04:27:24.198Z,4.30
2023-05-13T04:29:54.386Z,5.10
2023-05-13T04:32:21.607Z,4.40
2023-05-13T04:34:52.418Z,3.90
2023-05-13T04:37:20.198Z,3.50
2023-05-13T04:39:48.477Z,3.90
2023-05-13T04:42:16.748Z,3.50
2023-05-13T04:44:44.007Z,3.60
2023-05-13T04:47:11.388Z,3.40
2023-05-13T04:49:38.522Z,4.10
2023-05-13T04:52:06.597Z,3.40
2023-05-13T04:54:35.546Z,3.10
2023-05-13T04:57:03.086Z,3.50
2023-05-13T04:59:31.557Z,3.50
2023-05-13T05:01:58.759Z,3.00
2023-05-13T05:04:26.884Z,3.40
2023-05-13T05:06:53.951Z,3.40
2023-05-13T05:09:22.140Z,3.00
2023-05-13T05:11:51.132Z,3.60
2023-05-13T05:14:20.318Z,3.30
2023-05-13T05:16:48.783Z,4.80
2023-05-13T05:19:16.098Z,5.00
2023-05-13T05:21:43.423Z,7.00
2023-05-13T05:24:10.984Z,5.00
2023-05-13T05:26:38.248Z,4.60
2023-05-13T05:29:06.298Z,4.90
2023-05-13T05:31:33.536Z,3.90
2023-05-13T05:34:02.421Z,4.90
2023-05-13T05:36:29.588Z,3.50
2023-05-13T05:38:56.739Z,3.60
2023-05-13T05:41:30.482Z,4.00
2023-05-13T05:43:57.565Z,3.30
2023-05-13T05:46:25.046Z,3.70
2023-05-13T05:48:52.353Z,3.60
2023-05-13T05:51:20.332Z,3.00
2023-05-13T05:53:47.898Z,2.90
2023-05-13T05:56:16.794Z,2.70
2023-05-13T05:58:45.179Z,3.90
2023-05-13T06:01:12.448Z,3.40
2023-05-13T06:03:39.786Z,3.40
2023-05-13T06:06:07.339Z,3.50
2023-05-13T06:08:34.523Z,3.20
2023-05-13T06:11:01.876Z,3.10
2023-05-13T06:13:29.033Z,3.20
2023-05-13T06:15:56.362Z,4.40
2023-05-13T06:18:23.744Z,3.60
2023-05-13T06:20:50.901Z,3.50
2023-05-13T06:23:19.012Z,3.20
2023-05-13T06:25:46.737Z,3.70
2023-05-13T06:28:13.827Z,3.70
2023-05-13T06:30:43.982Z,5.50
2023-05-13T06:33:12.078Z,13.50
2023-05-13T06:35:39.554Z,6.40
2023-05-13T06:38:07.313Z,3.90
2023-05-13T06:40:35.533Z,3.50
2023-05-13T06:43:02.674Z,3.40
2023-05-13T06:45:31.875Z,3.20
2023-05-13T06:47:59.608Z,3.80
2023-05-13T06:50:26.873Z,6.50
2023-05-13T06:52:54.684Z,18.80
2023-05-13T06:55:21.833Z,7.70
2023-05-13T06:57:48.991Z,3.90
2023-05-13T07:00:17.265Z,3.60
2023-05-13T07:02:44.383Z,4.10
2023-05-13T07:05:11.880Z,4.30
2023-05-13T07:07:39.238Z,4.00
2023-05-13T07:10:06.608Z,4.00
2023-05-13T07:12:33.699Z,3.60
2023-05-13T07:15:00.808Z,5.40
2023-05-13T07:17:28.005Z,3.40
2023-05-13T07:19:56.240Z,3.70
2023-05-13T07:22:24.107Z,4.00
2023-05-13T07:24:51.270Z,3.70
2023-05-13T07:27:18.323Z,3.70
2023-05-13T07:29:45.581Z,4.30
2023-05-13T07:32:12.843Z,3.00
2023-05-13T07:34:40.202Z,4.70
2023-05-13T07:37:07.254Z,3.40
2023-05-13T07:39:34.821Z,4.80
2023-05-13T07:42:01.970Z,6.50
2023-05-13T07:44:29.850Z,5.60
2023-05-13T07:46:57.077Z,7.30
2023-05-13T07:49:24.287Z,4.10
2023-05-13T07:51:51.526Z,4.30
2023-05-13T07:54:18.786Z,7.50
2023-05-13T07:56:47.572Z,5.60
2023-05-13T07:59:14.737Z,3.00
2023-05-13T08:01:42.496Z,4.00
2023-05-13T08:04:09.932Z,6.50
2023-05-13T08:06:37.219Z,4.50
2023-05-13T08:09:04.214Z,5.40
2023-05-13T08:11:31.326Z,3.00
2023-05-13T08:13:58.341Z,3.20
2023-05-13T08:16:25.450Z,4.50
2023-05-13T08:18:52.828Z,3.80
2023-05-13T08:21:20.147Z,3.80
2023-05-13T08:23:51.209Z,3.80
2023-05-13T08:26:18.356Z,4.70
2023-05-13T08:28:45.724Z,4.30
2023-05-13T08:31:13.423Z,4.70
2023-05-13T08:33:42.083Z,3.50
2023-05-13T08:36:09.729Z,3.40
2023-05-13T08:38:37.210Z,3.80
2023-05-13T08:41:05.882Z,7.70
2023-05-13T08:43:34.074Z,3.10
2023-05-13T08:46:03.838Z,3.10
2023-05-13T08:48:31.938Z,3.20
2023-05-13T08:51:01.422Z,3.40
2023-05-13T08:53:29.032Z,3.20
2023-05-13T08:55:57.107Z,3.30
2023-05-13T08:58:25.033Z,5.20
2023-05-13T09:00:53.629Z,7.70
2023-05-13T09:03:21.139Z,7.90
2023-05-13T09:05:48.189Z,4.50
2023-05-13T09:08:16.161Z,6.20
2023-05-13T09:10:43.721Z,5.50
2023-05-13T09:13:16.709Z,5.90
2023-05-13T09:15:44.607Z,6.80
2023-05-13T09:18:14.700Z,6.90
2023-05-13T09:20:43.198Z,10.10
2023-05-13T09:23:10.889Z,5.30
2023-05-13T09:25:39.151Z,2.70
2023-05-13T09:28:07.426Z,3.10
2023-05-13T09:30:45.496Z,3.30
2023-05-13T09:33:15.910Z,3.60
2023-05-13T09:35:53.422Z,3.50
2023-05-13T09:38:31.037Z,3.50
2023-05-13T09:41:00.097Z,2.90
2023-05-13T09:43:39.376Z,3.20
2023-05-13T09:46:08.874Z,2.70
2023-05-13T09:48:37.673Z,3.30
2023-05-13T09:51:05.240Z,3.10
2023-05-13T09:53:32.436Z,4.50
2023-05-13T09:56:01.085Z,2.80
2023-05-13T09:58:30.186Z,3.20
2023-05-13T10:00:57.998Z,4.00
2023-05-13T10:03:25.419Z,3.10
2023-05-13T10:05:53.190Z,3.50
2023-05-13T10:08:22.090Z,3.00
2023-05-13T10:10:53.157Z,3.00
2023-05-13T10:13:23.807Z,3.60
2023-05-13T10:15:54.212Z,3.20
2023-05-13T10:18:24.286Z,3.40
2023-05-13T10:20:54.553Z,3.50
2023-05-13T10:23:23.536Z,3.40
2023-05-13T10:25:52.649Z,3.20
2023-05-13T10:28:19.890Z,5.90
2023-05-13T10:30:50.870Z,5.70
2023-05-13T10:33:18.214Z,5.40
2023-05-13T10:36:00.699Z,6.70
2023-05-13T10:41:48.950Z,2.90
2023-05-13T10:44:19.732Z,2.90
2023-05-13T10:46:47.904Z,4.70
2023-05-13T10:49:18.082Z,3.00
2023-05-13T10:51:47.894Z,2.90
2023-05-13T10:54:22.722Z,2.80
2023-05-13T10:56:59.252Z,2.60
2023-05-13T10:59:29.928Z,2.40
2023-05-13T11:01:57.235Z,2.70
2023-05-13T11:04:24.558Z,3.30
2023-05-13T11:06:52.218Z,2.40
2023-05-13T11:09:22.448Z,3.00
2023-05-13T11:11:54.316Z,2.80
2023-05-13T11:14:23.862Z,2.80
2023-05-13T11:16:59.971Z,4.40
2023-05-13T11:19:32.633Z,3.10
2023-05-13T11:22:16.295Z,3.20
2023-05-13T11:25:09.545Z,3.30
2023-05-13T11:27:41.814Z,4.60
2023-05-13T11:30:23.568Z,6.30
2023-05-13T11:32:53.771Z,4.70
2023-05-13T11:35:21.810Z,3.70
2023-05-13T11:37:49.183Z,3.20
2023-05-13T11:40:33.347Z,2.20
2023-05-13T11:43:01.483Z,2.50
2023-05-13T11:45:29.604Z,2.70
2023-05-13T11:47:57.712Z,4.50
2023-05-13T11:50:29.915Z,2.50
2023-05-13T11:52:58.756Z,2.20
2023-05-13T11:55:31.389Z,7.70
2023-05-13T11:57:59.050Z,3.40
2023-05-13T12:00:33.600Z,2.30
2023-05-13T12:03:08.702Z,2.50
2023-05-13T12:05:35.881Z,2.40
2023-05-13T12:08:03.490Z,2.40
2023-05-13T12:10:30.492Z,3.60
2023-05-13T12:12:58.159Z,2.20
2023-05-13T12:15:25.897Z,2.50
2023-05-13T12:17:54.206Z,2.90
2023-05-13T12:20:23.508Z,3.00
2023-05-13T12:22:52.694Z,2.30
2023-05-13T12:25:39.319Z,2.90
2023-05-13T12:28:26.332Z,3.40
2023-05-13T12:30:55.747Z,4.90
2023-05-13T12:33:29.039Z,2.70
2023-05-13T12:36:33.142Z,6.30
2023-05-13T12:39:04.677Z,5.60
2023-05-13T12:41:37.371Z,14.80
2023-05-13T12:44:09.008Z,6.50
2023-05-13T12:46:36.956Z,3.40
2023-05-13T12:49:05.464Z,3.30
2023-05-13T12:51:33.792Z,4.70
2023-05-13T12:54:01.311Z,7.50
2023-05-13T12:56:28.574Z,3.40
2023-05-13T12:58:56.164Z,3.70
2023-05-13T13:01:23.338Z,5.00
2023-05-13T13:03:50.627Z,6.70
2023-05-13T13:06:18.116Z,3.20
2023-05-13T13:08:45.278Z,3.00
2023-05-13T13:11:18.053Z,2.60
2023-05-13T13:13:46.595Z,4.30
2023-05-13T13:16:14.341Z,2.50
2023-05-13T13:18:42.546Z,3.90
2023-05-13T13:21:10.066Z,2.70
2023-05-13T13:23:37.223Z,2.60
2023-05-13T13:26:04.425Z,4.40
2023-05-13T13:28:31.743Z,3.00
2023-05-13T13:30:59.601Z,2.60
2023-05-13T13:33:27.061Z,2.80
2023-05-13T13:35:54.321Z,2.20
2023-05-13T13:38:21.577Z,2.60
2023-05-13T13:40:48.621Z,3.60
2023-05-13T13:43:15.784Z,3.50
2023-05-13T13:45:42.852Z,2.80
2023-05-13T13:48:10.253Z,2.90
2023-05-13T13:50:37.450Z,2.70
2023-05-13T13:53:04.817Z,3.90
2023-05-13T13:55:31.869Z,3.00
2023-05-13T13:57:59.021Z,19.10
2023-05-13T14:00:26.084Z,2.80
2023-05-13T14:02:53.208Z,2.60
2023-05-13T14:05:20.504Z,4.80
2023-05-13T14:07:49.075Z,3.50
2023-05-13T14:10:16.451Z,2.80
2023-05-13T14:12:43.498Z,3.50
2023-05-13T14:15:11.266Z,3.00
2023-05-13T14:17:38.349Z,3.50
2023-05-13T14:20:06.523Z,3.50
2023-05-13T14:22:33.646Z,2.70
2023-05-13T14:25:01.113Z,2.70
2023-05-13T14:27:28.382Z,2.40
2023-05-13T14:29:55.328Z,40.20
2023-05-13T14:32:22.590Z,7.70
2023-05-13T14:34:49.641Z,4.20
2023-05-13T14:37:16.816Z,2.30
2023-05-13T14:39:44.148Z,4.70
2023-05-13T14:42:11.309Z,2.90
2023-05-13T14:44:40.815Z,5.30
2023-05-13T14:47:08.632Z,18.30
2023-05-13T14:49:35.738Z,13.30
2023-05-13T14:52:03.096Z,3.20
2023-05-13T14:54:34.963Z,3.00
2023-05-13T14:57:03.368Z,2.20
2023-05-13T14:59:32.232Z,5.50
2023-05-13T15:02:01.659Z,5.60
2023-05-13T15:04:28.905Z,3.50
2023-05-13T15:06:56.054Z,2.60
2023-05-13T15:09:23.215Z,2.50
2023-05-13T15:11:50.262Z,2.90
2023-05-13T15:14:17.533Z,2.50
2023-05-13T15:16:44.892Z,2.50
2023-05-13T15:19:12.148Z,2.70
2023-05-13T15:21:39.506Z,2.80
2023-05-13T15:24:06.672Z,2.90
2023-05-13T15:26:33.913Z,4.50
2023-05-13T15:29:00.978Z,2.50
2023-05-13T15:31:31.244Z,2.40
2023-05-13T15:33:59.068Z,5.30
2023-05-13T15:36:26.015Z,4.70
2023-05-13T15:38:53.121Z,4.00
2023-05-13T15:41:20.339Z,3.20
2023-05-13T15:43:47.687Z,4.10
2023-05-13T15:46:15.060Z,3.10
2023-05-13T15:48:42.506Z,6.10
2023-05-13T15:51:09.664Z,6.40
2023-05-13T15:53:36.816Z,5.20
2023-05-13T15:56:04.286Z,7.30
2023-05-13T15:58:31.547Z,9.60
2023-05-13T16:00:58.696Z,14.80
2023-05-13T16:03:25.757Z,9.40
2023-05-13T16:05:54.744Z,4.40
2023-05-13T16:08:21.902Z,5.00
2023-05-13T16:10:49.154Z,3.60
2023-05-13T16:13:16.106Z,2.60
2023-05-13T16:15:43.375Z,2.50
2023-05-13T16:18:10.372Z,4.90
2023-05-13T16:20:37.586Z,2.50
2023-05-13T16:23:04.844Z,3.00
2023-05-13T16:25:31.987Z,3.20
2023-05-13T16:27:59.270Z,4.60
2023-05-13T16:30:27.016Z,5.60
2023-05-13T16:32:54.306Z,6.50
2023-05-13T16:35:21.935Z,8.90
2023-05-13T16:37:49.612Z,9.00
2023-05-13T16:40:16.664Z,8.10
2023-05-13T16:42:44.024Z,7.30
2023-05-13T16:45:11.835Z,6.40
2023-05-13T16:47:39.078Z,5.90
2023-05-13T16:50:07.963Z,4.70
2023-05-13T16:52:35.104Z,6.40
2023-05-13T16:55:02.667Z,5.50
2023-05-13T16:57:29.921Z,7.10
2023-05-13T16:59:56.905Z,6.90
2023-05-13T17:02:24.512Z,7.90
2023-05-13T17:04:52.018Z,7.30
2023-05-13T17:07:19.394Z,7.30
2023-05-13T17:09:46.620Z,7.30
2023-05-13T17:12:14.186Z,10.20
2023-05-13T17:14:41.256Z,18.90
2023-05-13T17:17:08.836Z,21.50
2023-05-13T17:19:35.826Z,23.40
2023-05-13T17:22:02.813Z,22.90
2023-05-13T17:24:29.998Z,15.20
2023-05-13T17:26:57.329Z,11.80
2023-05-13T17:29:25.399Z,10.50
2023-05-13T17:31:52.777Z,11.00
2023-05-13T17:34:20.637Z,11.40
2023-05-13T17:36:50.000Z,10.40
2023-05-13T17:39:17.407Z,12.10
2023-05-13T17:41:44.559Z,11.10
2023-05-13T17:44:11.550Z,9.90
2023-05-13T17:46:38.774Z,10.40
2023-05-13T17:49:06.085Z,9.50
2023-05-13T17:51:33.198Z,9.30
2023-05-13T17:54:00.344Z,10.40
2023-05-13T17:56:27.393Z,13.60
2023-05-13T17:58:54.458Z,11.10
2023-05-13T18:01:21.964Z,11.60
2023-05-13T18:03:49.575Z,18.20
2023-05-13T18:06:16.853Z,27.40
2023-05-13T18:08:44.187Z,28.80
2023-05-13T18:11:11.446Z,24.70
2023-05-13T18:13:38.704Z,21.00
2023-05-13T18:16:08.645Z,20.10
2023-05-13T18:18:36.294Z,19.60
2023-05-13T18:21:03.354Z,21.70
2023-05-13T18:23:32.129Z,18.20
2023-05-13T18:25:59.287Z,17.40
2023-05-13T18:28:26.575Z,19.10
2023-05-13T18:30:53.604Z,17.30
2023-05-13T18:33:21.503Z,15.00
2023-05-13T18:35:48.736Z,14.60
2023-05-13T18:38:15.900Z,16.40
2023-05-13T18:40:43.053Z,14.00
2023-05-13T18:43:10.004Z,15.10
2023-05-13T18:45:37.278Z,13.70
2023-05-13T18:48:04.775Z,11.80
2023-05-13T18:50:31.975Z,8.00
2023-05-13T18:52:59.231Z,8.10
2023-05-13T18:55:26.499Z,9.10
2023-05-13T18:57:53.723Z,11.20
2023-05-13T19:00:21.327Z,7.90
2023-05-13T19:02:48.651Z,9.90
2023-05-13T19:05:16.811Z,8.80
2023-05-13T19:07:44.411Z,10.30
2023-05-13T19:10:11.575Z,9.70
2023-05-13T19:12:38.726Z,8.20
2023-05-13T19:15:06.814Z,8.70
2023-05-13T19:17:34.634Z,11.40
2023-05-13T19:20:02.032Z,7.60
2023-05-13T19:22:29.186Z,9.70
2023-05-13T19:24:57.462Z,10.80
2023-05-13T19:27:25.849Z,10.20
2023-05-13T19:29:53.109Z,9.00
2023-05-13T19:32:20.468Z,10.30
2023-05-13T19:34:47.518Z,8.80
2023-05-13T19:37:14.872Z,8.70
2023-05-13T19:39:41.932Z,7.90
2023-05-13T19:42:09.077Z,8.00
2023-05-13T19:44:36.148Z,6.30
2023-05-13T19:47:03.408Z,8.30
2023-05-13T19:49:30.561Z,6.80
2023-05-13T19:51:57.543Z,7.50
2023-05-13T19:54:24.771Z,7.40
2023-05-13T19:56:52.820Z,6.90
2023-05-13T19:59:19.804Z,10.20
2023-05-13T20:01:46.975Z,9.90
2023-05-13T20:04:14.248Z,8.30
2023-05-13T20:06:41.470Z,11.50
2023-05-13T20:09:10.048Z,14.00
2023-05-13T20:11:37.619Z,18.20
2023-05-13T20:14:04.764Z,13.80
2023-05-13T20:16:31.726Z,11.50
2023-05-13T20:18:58.712Z,12.20
2023-05-13T20:21:25.669Z,12.30
2023-05-13T20:23:52.680Z,10.20
2023-05-13T20:26:19.954Z,10.70
2023-05-13T20:28:48.142Z,8.90
2023-05-13T20:31:15.717Z,10.30
2023-05-13T20:33:43.046Z,9.50
2023-05-13T20:36:10.196Z,9.10
2023-05-13T20:38:37.561Z,8.90
2023-05-13T20:41:04.873Z,11.30
2023-05-13T20:43:34.634Z,8.90
2023-05-13T20:46:02.834Z,8.80
2023-05-13T20:48:31.506Z,8.40
2023-05-13T20:51:01.933Z,7.40
2023-05-13T20:53:29.088Z,9.60
2023-05-13T20:55:56.238Z,8.80
2023-05-13T20:58:23.423Z,8.90
2023-05-13T21:00:51.167Z,7.00
2023-05-13T21:03:18.455Z,8.50
2023-05-13T21:05:45.789Z,10.70
2023-05-13T21:08:12.886Z,9.40
2023-05-13T21:10:39.996Z,9.30
2023-05-13T21:13:07.051Z,10.80
2023-05-13T21:15:34.859Z,9.70
2023-05-13T21:18:02.018Z,10.80
2023-05-13T21:20:29.491Z,11.50
2023-05-13T21:22:56.503Z,11.80
2023-05-13T21:25:23.525Z,10.00
2023-05-13T21:27:50.736Z,9.80
2023-05-13T21:30:17.857Z,11.20
2023-05-13T21:32:44.852Z,7.90
2023-05-13T21:35:12.960Z,8.80
2023-05-13T21:37:40.337Z,9.20
2023-05-13T21:40:08.541Z,9.70
2023-05-13T21:42:35.792Z,8.70
2023-05-13T21:45:03.240Z,10.50
2023-05-13T21:47:30.231Z,7.40
2023-05-13T21:49:57.958Z,8.10
2023-05-13T21:52:25.220Z,9.30
2023-05-13T21:54:52.369Z,9.20
2023-05-13T21:57:19.632Z,8.10
2023-05-13T21:59:46.577Z,6.40
2023-05-13T22:02:13.757Z,8.20
2023-05-13T22:04:40.790Z,8.50
2023-05-13T22:07:08.354Z,7.90
2023-05-13T22:09:35.621Z,12.90
2023-05-13T22:12:03.279Z,7.90
2023-05-13T22:14:30.427Z,10.60
2023-05-13T22:17:08.366Z,9.90
2023-05-13T22:19:36.807Z,12.20
2023-05-13T22:22:04.376Z,12.60
2023-05-13T22:24:31.744Z,15.10
2023-05-13T22:26:59.819Z,13.50
2023-05-13T22:29:27.182Z,12.00
2023-05-13T22:31:56.868Z,19.50
2023-05-13T22:34:25.003Z,20.60
2023-05-13T22:36:52.129Z,19.10
2023-05-13T22:39:19.706Z,21.00
2023-05-13T22:41:47.073Z,13.50
2023-05-13T22:44:14.178Z,11.10
2023-05-13T22:46:41.167Z,10.30
2023-05-13T22:49:09.849Z,12.10
2023-05-13T22:51:37.114Z,13.00
2023-05-13T22:54:05.797Z,11.20
2023-05-13T22:56:32.958Z,13.00
2023-05-13T22:58:59.856Z,12.80
2023-05-13T23:01:27.094Z,13.30
2023-05-13T23:03:54.031Z,13.40
2023-05-13T23:06:21.385Z,11.80
2023-05-13T23:08:48.531Z,10.60
2023-05-13T23:11:15.784Z,9.40
2023-05-13T23:13:42.833Z,10.60
2023-05-13T23:16:10.025Z,7.70
2023-05-13T23:18:37.300Z,7.60
2023-05-13T23:21:04.904Z,7.60
2023-05-13T23:23:32.272Z,6.90
2023-05-13T23:25:59.317Z,10.60
2023-05-13T23:28:26.492Z,8.20
2023-05-13T23:30:53.844Z,8.00
2023-05-13T23:33:20.755Z,7.90
2023-05-13T23:35:54.313Z,8.10
2023-05-13T23:38:21.741Z,6.10
2023-05-13T23:40:48.715Z,6.20
2023-05-13T23:43:15.691Z,5.90
2023-05-13T23:45:42.950Z,8.80
2023-05-13T23:48:10.269Z,7.40
2023-05-13T23:50:37.840Z,7.50
2023-05-13T23:53:05.407Z,7.00
2023-05-13T23:55:32.871Z,6.30
2023-05-13T23:58:00.129Z,7.30
